sensor_id;sensor_type;location;lat;lon;timestamp;P1;durP1;ratioP1;P2;durP2;ratioP2
41043;SDS011;51680;49.806;18.774;2022-12-18T00:00:14;108.53;;;38.17;;
41043;SDS011;51680;49.806;18.774;2022-12-18T00:03:19;103.18;;;36.28;;
41043;SDS011;51680;49.806;18.774;2022-12-18T00:06:21;111.70;;;37.75;;
41043;SDS011;51680;49.806;18.774;2022-12-18T00:09:43;119.88;;;39.45;;
41043;SDS011;51680;49.806;18.774;2022-12-18T00:12:45;110.00;;;38.65;;
41043;SDS011;51680;49.806;18.774;2022-12-18T00:15:47;116.40;;;38.63;;
41043;SDS011;51680;49.806;18.774;2022-12-18T00:18:49;111.00;;;38.08;;
41043;SDS011;51680;49.806;18.774;2022-12-18T00:21:52;112.15;;;38.38;;
41043;SDS011;51680;49.806;18.774;2022-12-18T00:24:56;112.75;;;39.10;;
41043;SDS011;51680;49.806;18.774;2022-12-18T00:27:58;116.97;;;39.22;;
41043;SDS011;51680;49.806;18.774;2022-12-18T00:31:00;106.90;;;36.58;;
41043;SDS011;51680;49.806;18.774;2022-12-18T00:34:02;109.10;;;36.67;;
41043;SDS011;51680;49.806;18.774;2022-12-18T00:37:04;115.18;;;38.25;;
41043;SDS011;51680;49.806;18.774;2022-12-18T00:40:08;113.43;;;37.97;;
41043;SDS011;51680;49.806;18.774;2022-12-18T00:43:11;112.80;;;38.08;;
41043;SDS011;51680;49.806;18.774;2022-12-18T00:46:12;109.43;;;38.63;;
41043;SDS011;51680;49.806;18.774;2022-12-18T00:49:14;113.70;;;38.00;;
41043;SDS011;51680;49.806;18.774;2022-12-18T00:52:16;112.05;;;38.78;;
41043;SDS011;51680;49.806;18.774;2022-12-18T00:55:20;110.80;;;38.35;;
41043;SDS011;51680;49.806;18.774;2022-12-18T00:58:21;109.88;;;37.65;;
41043;SDS011;51680;49.806;18.774;2022-12-18T01:01:23;110.72;;;38.60;;
41043;SDS011;51680;49.806;18.774;2022-12-18T01:04:25;101.07;;;37.63;;
41043;SDS011;51680;49.806;18.774;2022-12-18T01:07:27;99.45;;;35.67;;
41043;SDS011;51680;49.806;18.774;2022-12-18T01:10:31;91.50;;;34.70;;
41043;SDS011;51680;49.806;18.774;2022-12-18T01:13:32;96.70;;;36.45;;
41043;SDS011;51680;49.806;18.774;2022-12-18T01:16:34;93.65;;;34.35;;
41043;SDS011;51680;49.806;18.774;2022-12-18T01:19:38;92.40;;;34.40;;
41043;SDS011;51680;49.806;18.774;2022-12-18T01:22:43;91.20;;;33.75;;
41043;SDS011;51680;49.806;18.774;2022-12-18T01:25:47;94.15;;;34.75;;
41043;SDS011;51680;49.806;18.774;2022-12-18T01:28:48;100.28;;;35.67;;
41043;SDS011;51680;49.806;18.774;2022-12-18T01:31:50;99.05;;;35.10;;
41043;SDS011;51680;49.806;18.774;2022-12-18T01:34:52;98.25;;;35.55;;
41043;SDS011;51680;49.806;18.774;2022-12-18T01:37:54;102.13;;;35.55;;
41043;SDS011;51680;49.806;18.774;2022-12-18T01:40:58;101.75;;;36.30;;
41043;SDS011;51680;49.806;18.774;2022-12-18T01:44:00;97.40;;;36.00;;
41043;SDS011;51680;49.806;18.774;2022-12-18T01:47:02;104.85;;;36.95;;
41043;SDS011;51680;49.806;18.774;2022-12-18T01:50:05;102.50;;;35.38;;
41043;SDS011;51680;49.806;18.774;2022-12-18T01:53:11;100.22;;;34.65;;
41043;SDS011;51680;49.806;18.774;2022-12-18T01:56:17;101.25;;;34.33;;
41043;SDS011;51680;49.806;18.774;2022-12-18T01:59:21;94.90;;;33.65;;
41043;SDS011;51680;49.806;18.774;2022-12-18T02:02:23;93.53;;;35.17;;
41043;SDS011;51680;49.806;18.774;2022-12-18T02:05:29;90.25;;;34.10;;
41043;SDS011;51680;49.806;18.774;2022-12-18T02:08:43;89.90;;;33.10;;
41043;SDS011;51680;49.806;18.774;2022-12-18T02:11:55;93.50;;;34.42;;
41043;SDS011;51680;49.806;18.774;2022-12-18T02:18:13;86.68;;;31.45;;
41043;SDS011;51680;49.806;18.774;2022-12-18T02:21:22;88.57;;;31.25;;
41043;SDS011;51680;49.806;18.774;2022-12-18T02:24:33;86.63;;;32.17;;
41043;SDS011;51680;49.806;18.774;2022-12-18T02:27:40;87.10;;;31.75;;
41043;SDS011;51680;49.806;18.774;2022-12-18T02:30:45;77.25;;;29.88;;
41043;SDS011;51680;49.806;18.774;2022-12-18T02:33:50;85.63;;;31.50;;
41043;SDS011;51680;49.806;18.774;2022-12-18T02:36:57;83.55;;;30.58;;
41043;SDS011;51680;49.806;18.774;2022-12-18T02:40:03;78.78;;;31.05;;
41043;SDS011;51680;49.806;18.774;2022-12-18T02:43:11;84.85;;;30.95;;
41043;SDS011;51680;49.806;18.774;2022-12-18T02:46:25;81.55;;;30.42;;
41043;SDS011;51680;49.806;18.774;2022-12-18T02:49:34;73.38;;;28.92;;
41043;SDS011;51680;49.806;18.774;2022-12-18T02:52:45;77.55;;;29.50;;
41043;SDS011;51680;49.806;18.774;2022-12-18T02:55:59;69.60;;;26.25;;
41043;SDS011;51680;49.806;18.774;2022-12-18T02:59:09;75.00;;;28.92;;
41043;SDS011;51680;49.806;18.774;2022-12-18T03:02:21;76.10;;;28.42;;
41043;SDS011;51680;49.806;18.774;2022-12-18T03:05:30;73.13;;;29.25;;
41043;SDS011;51680;49.806;18.774;2022-12-18T03:08:36;71.38;;;27.77;;
41043;SDS011;51680;49.806;18.774;2022-12-18T03:11:42;72.68;;;28.35;;
41043;SDS011;51680;49.806;18.774;2022-12-18T03:15:08;67.07;;;26.27;;
41043;SDS011;51680;49.806;18.774;2022-12-18T03:18:17;73.22;;;27.65;;
41043;SDS011;51680;49.806;18.774;2022-12-18T03:21:24;72.78;;;26.48;;
41043;SDS011;51680;49.806;18.774;2022-12-18T03:24:29;74.53;;;28.20;;
41043;SDS011;51680;49.806;18.774;2022-12-18T03:27:34;70.70;;;29.23;;
41043;SDS011;51680;49.806;18.774;2022-12-18T03:30:43;73.72;;;28.65;;
41043;SDS011;51680;49.806;18.774;2022-12-18T03:33:48;74.80;;;28.25;;
41043;SDS011;51680;49.806;18.774;2022-12-18T03:37:02;73.78;;;28.05;;
41043;SDS011;51680;49.806;18.774;2022-12-18T03:40:06;69.65;;;27.38;;
41043;SDS011;51680;49.806;18.774;2022-12-18T03:43:10;62.97;;;25.65;;
41043;SDS011;51680;49.806;18.774;2022-12-18T03:46:20;67.93;;;25.67;;
41043;SDS011;51680;49.806;18.774;2022-12-18T03:49:30;58.95;;;23.98;;
41043;SDS011;51680;49.806;18.774;2022-12-18T03:52:37;64.07;;;24.95;;
41043;SDS011;51680;49.806;18.774;2022-12-18T03:55:43;58.45;;;22.92;;
41043;SDS011;51680;49.806;18.774;2022-12-18T03:58:45;60.05;;;23.85;;
41043;SDS011;51680;49.806;18.774;2022-12-18T04:01:54;60.95;;;23.25;;
41043;SDS011;51680;49.806;18.774;2022-12-18T04:05:00;58.28;;;23.80;;
41043;SDS011;51680;49.806;18.774;2022-12-18T04:08:08;57.67;;;23.00;;
41043;SDS011;51680;49.806;18.774;2022-12-18T04:11:14;57.25;;;23.65;;
41043;SDS011;51680;49.806;18.774;2022-12-18T04:14:17;56.33;;;21.63;;
41043;SDS011;51680;49.806;18.774;2022-12-18T04:17:24;59.75;;;23.33;;
41043;SDS011;51680;49.806;18.774;2022-12-18T04:20:26;63.08;;;22.42;;
41043;SDS011;51680;49.806;18.774;2022-12-18T04:23:28;62.65;;;25.02;;
41043;SDS011;51680;49.806;18.774;2022-12-18T04:26:32;52.92;;;21.48;;
41043;SDS011;51680;49.806;18.774;2022-12-18T04:29:45;63.58;;;25.35;;
41043;SDS011;51680;49.806;18.774;2022-12-18T04:32:48;71.70;;;27.15;;
41043;SDS011;51680;49.806;18.774;2022-12-18T04:35:50;72.25;;;27.85;;
41043;SDS011;51680;49.806;18.774;2022-12-18T04:38:52;67.07;;;25.30;;
41043;SDS011;51680;49.806;18.774;2022-12-18T04:41:56;65.55;;;24.23;;
41043;SDS011;51680;49.806;18.774;2022-12-18T04:45:03;75.53;;;27.25;;
41043;SDS011;51680;49.806;18.774;2022-12-18T04:48:07;68.85;;;26.40;;
41043;SDS011;51680;49.806;18.774;2022-12-18T04:51:09;66.30;;;27.05;;
41043;SDS011;51680;49.806;18.774;2022-12-18T04:54:13;68.40;;;25.85;;
41043;SDS011;51680;49.806;18.774;2022-12-18T04:57:14;69.03;;;25.13;;
41043;SDS011;51680;49.806;18.774;2022-12-18T05:00:18;68.88;;;27.75;;
41043;SDS011;51680;49.806;18.774;2022-12-18T05:03:21;67.63;;;25.05;;
41043;SDS011;51680;49.806;18.774;2022-12-18T05:06:23;62.70;;;24.05;;
41043;SDS011;51680;49.806;18.774;2022-12-18T05:09:25;59.15;;;22.27;;
41043;SDS011;51680;49.806;18.774;2022-12-18T05:12:26;57.45;;;21.83;;
41043;SDS011;51680;49.806;18.774;2022-12-18T05:15:28;59.63;;;21.98;;
41043;SDS011;51680;49.806;18.774;2022-12-18T05:18:33;64.07;;;22.75;;
41043;SDS011;51680;49.806;18.774;2022-12-18T05:21:35;62.88;;;22.55;;
41043;SDS011;51680;49.806;18.774;2022-12-18T05:24:37;60.57;;;22.43;;
41043;SDS011;51680;49.806;18.774;2022-12-18T05:27:38;59.03;;;22.20;;
41043;SDS011;51680;49.806;18.774;2022-12-18T05:30:40;56.22;;;22.25;;
41043;SDS011;51680;49.806;18.774;2022-12-18T05:33:46;55.05;;;20.88;;
41043;SDS011;51680;49.806;18.774;2022-12-18T05:36:50;53.58;;;20.98;;
41043;SDS011;51680;49.806;18.774;2022-12-18T05:39:52;56.83;;;21.10;;
41043;SDS011;51680;49.806;18.774;2022-12-18T05:42:54;57.75;;;21.13;;
41043;SDS011;51680;49.806;18.774;2022-12-18T05:45:55;57.08;;;21.45;;
41043;SDS011;51680;49.806;18.774;2022-12-18T05:49:00;52.00;;;20.70;;
41043;SDS011;51680;49.806;18.774;2022-12-18T05:52:02;50.72;;;21.00;;
41043;SDS011;51680;49.806;18.774;2022-12-18T05:55:04;55.85;;;22.65;;
41043;SDS011;51680;49.806;18.774;2022-12-18T05:58:07;55.55;;;20.92;;
41043;SDS011;51680;49.806;18.774;2022-12-18T06:01:11;54.92;;;21.42;;
41043;SDS011;51680;49.806;18.774;2022-12-18T06:04:16;74.45;;;24.02;;
41043;SDS011;51680;49.806;18.774;2022-12-18T06:07:18;77.07;;;25.08;;
41043;SDS011;51680;49.806;18.774;2022-12-18T06:10:20;71.22;;;23.73;;
41043;SDS011;51680;49.806;18.774;2022-12-18T06:13:22;59.15;;;23.08;;
41043;SDS011;51680;49.806;18.774;2022-12-18T06:16:24;71.78;;;24.38;;
41043;SDS011;51680;49.806;18.774;2022-12-18T06:19:27;62.13;;;23.20;;
41043;SDS011;51680;49.806;18.774;2022-12-18T06:22:30;65.78;;;22.63;;
41043;SDS011;51680;49.806;18.774;2022-12-18T06:25:32;66.55;;;22.85;;
41043;SDS011;51680;49.806;18.774;2022-12-18T06:28:34;62.92;;;24.20;;
41043;SDS011;51680;49.806;18.774;2022-12-18T06:31:36;73.60;;;24.38;;
41043;SDS011;51680;49.806;18.774;2022-12-18T06:34:39;76.50;;;25.00;;
41043;SDS011;51680;49.806;18.774;2022-12-18T06:37:41;85.95;;;28.00;;
41043;SDS011;51680;49.806;18.774;2022-12-18T06:40:42;88.63;;;29.40;;
41043;SDS011;51680;49.806;18.774;2022-12-18T06:43:44;85.90;;;28.77;;
41043;SDS011;51680;49.806;18.774;2022-12-18T06:46:46;78.55;;;27.58;;
41043;SDS011;51680;49.806;18.774;2022-12-18T06:49:49;85.50;;;27.23;;
41043;SDS011;51680;49.806;18.774;2022-12-18T06:52:51;75.18;;;24.05;;
41043;SDS011;51680;49.806;18.774;2022-12-18T06:55:58;70.75;;;22.35;;
41043;SDS011;51680;49.806;18.774;2022-12-18T06:59:01;64.75;;;23.67;;
41043;SDS011;51680;49.806;18.774;2022-12-18T07:02:03;71.38;;;23.30;;
41043;SDS011;51680;49.806;18.774;2022-12-18T07:05:06;79.72;;;25.98;;
41043;SDS011;51680;49.806;18.774;2022-12-18T07:08:08;76.55;;;26.45;;
41043;SDS011;51680;49.806;18.774;2022-12-18T07:11:10;79.45;;;26.05;;
41043;SDS011;51680;49.806;18.774;2022-12-18T07:14:12;78.07;;;27.27;;
41043;SDS011;51680;49.806;18.774;2022-12-18T07:17:14;80.88;;;27.27;;
41043;SDS011;51680;49.806;18.774;2022-12-18T07:20:17;77.70;;;24.17;;
41043;SDS011;51680;49.806;18.774;2022-12-18T07:23:19;74.45;;;24.33;;
41043;SDS011;51680;49.806;18.774;2022-12-18T07:26:21;73.55;;;24.00;;
41043;SDS011;51680;49.806;18.774;2022-12-18T07:29:23;75.70;;;25.08;;
41043;SDS011;51680;49.806;18.774;2022-12-18T07:32:25;86.63;;;26.02;;
41043;SDS011;51680;49.806;18.774;2022-12-18T07:35:28;68.55;;;22.27;;
41043;SDS011;51680;49.806;18.774;2022-12-18T07:38:30;77.07;;;25.75;;
41043;SDS011;51680;49.806;18.774;2022-12-18T07:41:32;76.93;;;25.52;;
41043;SDS011;51680;49.806;18.774;2022-12-18T07:44:42;85.50;;;27.30;;
41043;SDS011;51680;49.806;18.774;2022-12-18T07:47:44;80.43;;;26.25;;
41043;SDS011;51680;49.806;18.774;2022-12-18T07:50:47;90.93;;;29.42;;
41043;SDS011;51680;49.806;18.774;2022-12-18T07:53:49;84.10;;;28.85;;
41043;SDS011;51680;49.806;18.774;2022-12-18T07:56:50;84.05;;;27.48;;
41043;SDS011;51680;49.806;18.774;2022-12-18T07:59:52;84.55;;;26.75;;
41043;SDS011;51680;49.806;18.774;2022-12-18T08:02:54;83.88;;;26.70;;
41043;SDS011;51680;49.806;18.774;2022-12-18T08:05:59;75.95;;;25.55;;
41043;SDS011;51680;49.806;18.774;2022-12-18T08:09:01;67.75;;;21.35;;
41043;SDS011;51680;49.806;18.774;2022-12-18T08:12:04;82.35;;;25.65;;
41043;SDS011;51680;49.806;18.774;2022-12-18T08:15:06;77.45;;;25.25;;
41043;SDS011;51680;49.806;18.774;2022-12-18T08:18:08;85.43;;;27.43;;
41043;SDS011;51680;49.806;18.774;2022-12-18T08:21:12;82.65;;;26.85;;
41043;SDS011;51680;49.806;18.774;2022-12-18T08:24:16;81.75;;;29.27;;
41043;SDS011;51680;49.806;18.774;2022-12-18T08:27:17;80.85;;;29.23;;
41043;SDS011;51680;49.806;18.774;2022-12-18T08:30:19;79.97;;;27.23;;
41043;SDS011;51680;49.806;18.774;2022-12-18T08:33:21;88.82;;;29.27;;
41043;SDS011;51680;49.806;18.774;2022-12-18T08:36:24;80.88;;;29.50;;
41043;SDS011;51680;49.806;18.774;2022-12-18T08:42:28;89.85;;;30.77;;
41043;SDS011;51680;49.806;18.774;2022-12-18T08:45:47;81.75;;;26.73;;
41043;SDS011;51680;49.806;18.774;2022-12-18T08:48:50;90.22;;;29.83;;
41043;SDS011;51680;49.806;18.774;2022-12-18T08:51:55;79.88;;;24.75;;
41043;SDS011;51680;49.806;18.774;2022-12-18T08:54:57;82.63;;;29.25;;
41043;SDS011;51680;49.806;18.774;2022-12-18T08:57:59;81.22;;;28.08;;
41043;SDS011;51680;49.806;18.774;2022-12-18T09:01:01;86.85;;;29.75;;
41043;SDS011;51680;49.806;18.774;2022-12-18T09:04:03;87.45;;;29.65;;
41043;SDS011;51680;49.806;18.774;2022-12-18T09:07:06;92.43;;;29.35;;
41043;SDS011;51680;49.806;18.774;2022-12-18T09:10:08;87.55;;;29.02;;
41043;SDS011;51680;49.806;18.774;2022-12-18T09:13:11;81.72;;;29.27;;
41043;SDS011;51680;49.806;18.774;2022-12-18T09:16:14;89.22;;;29.80;;
41043;SDS011;51680;49.806;18.774;2022-12-18T09:19:16;88.70;;;31.02;;
41043;SDS011;51680;49.806;18.774;2022-12-18T09:22:19;81.20;;;29.50;;
41043;SDS011;51680;49.806;18.774;2022-12-18T09:25:21;89.85;;;31.67;;
41043;SDS011;51680;49.806;18.774;2022-12-18T09:28:23;93.13;;;32.00;;
41043;SDS011;51680;49.806;18.774;2022-12-18T09:31:24;89.30;;;32.85;;
41043;SDS011;51680;49.806;18.774;2022-12-18T09:34:26;86.82;;;33.22;;
41043;SDS011;51680;49.806;18.774;2022-12-18T09:37:29;87.00;;;31.58;;
41043;SDS011;51680;49.806;18.774;2022-12-18T09:40:33;91.07;;;34.70;;
41043;SDS011;51680;49.806;18.774;2022-12-18T09:43:40;85.05;;;33.65;;
41043;SDS011;51680;49.806;18.774;2022-12-18T09:46:45;82.15;;;33.35;;
41043;SDS011;51680;49.806;18.774;2022-12-18T09:49:52;86.43;;;35.10;;
41043;SDS011;51680;49.806;18.774;2022-12-18T09:52:59;88.18;;;33.65;;
41043;SDS011;51680;49.806;18.774;2022-12-18T09:56:06;86.05;;;34.50;;
41043;SDS011;51680;49.806;18.774;2022-12-18T09:59:16;95.35;;;35.92;;
41043;SDS011;51680;49.806;18.774;2022-12-18T10:02:23;92.65;;;35.85;;
41043;SDS011;51680;49.806;18.774;2022-12-18T10:05:28;85.75;;;34.40;;
41043;SDS011;51680;49.806;18.774;2022-12-18T10:08:38;93.20;;;36.50;;
41043;SDS011;51680;49.806;18.774;2022-12-18T10:11:51;81.20;;;34.85;;
41043;SDS011;51680;49.806;18.774;2022-12-18T10:15:04;91.88;;;36.33;;
41043;SDS011;51680;49.806;18.774;2022-12-18T10:18:15;85.13;;;36.42;;
41043;SDS011;51680;49.806;18.774;2022-12-18T10:21:28;95.03;;;36.30;;
41043;SDS011;51680;49.806;18.774;2022-12-18T10:24:35;91.70;;;36.97;;
41043;SDS011;51680;49.806;18.774;2022-12-18T10:27:43;88.63;;;32.90;;
41043;SDS011;51680;49.806;18.774;2022-12-18T10:30:46;94.97;;;35.03;;
41043;SDS011;51680;49.806;18.774;2022-12-18T10:33:47;94.03;;;36.28;;
41043;SDS011;51680;49.806;18.774;2022-12-18T10:36:49;94.55;;;35.25;;
41043;SDS011;51680;49.806;18.774;2022-12-18T10:40:06;83.43;;;34.45;;
41043;SDS011;51680;49.806;18.774;2022-12-18T10:43:11;85.25;;;34.40;;
41043;SDS011;51680;49.806;18.774;2022-12-18T10:46:15;81.15;;;33.75;;
41043;SDS011;51680;49.806;18.774;2022-12-18T10:49:25;80.15;;;32.60;;
41043;SDS011;51680;49.806;18.774;2022-12-18T10:52:28;84.97;;;34.60;;
41043;SDS011;51680;49.806;18.774;2022-12-18T10:55:32;88.90;;;35.17;;
41043;SDS011;51680;49.806;18.774;2022-12-18T10:58:37;86.97;;;36.45;;
41043;SDS011;51680;49.806;18.774;2022-12-18T11:01:50;89.70;;;38.00;;
41043;SDS011;51680;49.806;18.774;2022-12-18T11:04:54;91.75;;;38.30;;
41043;SDS011;51680;49.806;18.774;2022-12-18T11:07:56;92.38;;;38.88;;
41043;SDS011;51680;49.806;18.774;2022-12-18T11:11:01;102.25;;;40.25;;
41043;SDS011;51680;49.806;18.774;2022-12-18T11:14:04;101.18;;;37.45;;
41043;SDS011;51680;49.806;18.774;2022-12-18T11:17:17;85.88;;;35.78;;
41043;SDS011;51680;49.806;18.774;2022-12-18T11:20:22;86.63;;;34.63;;
41043;SDS011;51680;49.806;18.774;2022-12-18T11:23:31;98.95;;;38.20;;
41043;SDS011;51680;49.806;18.774;2022-12-18T11:26:36;99.93;;;38.43;;
41043;SDS011;51680;49.806;18.774;2022-12-18T11:29:39;88.13;;;34.97;;
41043;SDS011;51680;49.806;18.774;2022-12-18T11:32:42;89.35;;;34.20;;
41043;SDS011;51680;49.806;18.774;2022-12-18T11:35:47;100.95;;;39.30;;
41043;SDS011;51680;49.806;18.774;2022-12-18T11:38:52;102.68;;;39.60;;
41043;SDS011;51680;49.806;18.774;2022-12-18T11:41:59;90.28;;;34.58;;
41043;SDS011;51680;49.806;18.774;2022-12-18T11:45:28;100.22;;;36.85;;
41043;SDS011;51680;49.806;18.774;2022-12-18T11:48:32;91.82;;;35.22;;
41043;SDS011;51680;49.806;18.774;2022-12-18T11:51:51;110.88;;;39.67;;
41043;SDS011;51680;49.806;18.774;2022-12-18T11:55:00;99.43;;;37.85;;
41043;SDS011;51680;49.806;18.774;2022-12-18T11:58:12;111.70;;;40.45;;
41043;SDS011;51680;49.806;18.774;2022-12-18T12:01:30;115.43;;;42.55;;
41043;SDS011;51680;49.806;18.774;2022-12-18T12:04:46;92.90;;;37.28;;
41043;SDS011;51680;49.806;18.774;2022-12-18T12:07:58;104.90;;;40.38;;
41043;SDS011;51680;49.806;18.774;2022-12-18T12:11:06;113.57;;;44.25;;
41043;SDS011;51680;49.806;18.774;2022-12-18T12:14:20;107.50;;;41.50;;
41043;SDS011;51680;49.806;18.774;2022-12-18T12:17:34;102.18;;;40.75;;
41043;SDS011;51680;49.806;18.774;2022-12-18T12:20:46;109.25;;;43.53;;
41043;SDS011;51680;49.806;18.774;2022-12-18T12:23:53;100.38;;;39.50;;
41043;SDS011;51680;49.806;18.774;2022-12-18T12:27:06;113.20;;;44.40;;
41043;SDS011;51680;49.806;18.774;2022-12-18T12:30:18;102.00;;;41.50;;
41043;SDS011;51680;49.806;18.774;2022-12-18T12:33:29;92.45;;;37.63;;
41043;SDS011;51680;49.806;18.774;2022-12-18T12:36:46;92.38;;;37.60;;
41043;SDS011;51680;49.806;18.774;2022-12-18T12:39:57;100.70;;;38.50;;
41043;SDS011;51680;49.806;18.774;2022-12-18T12:43:02;95.63;;;35.80;;
41043;SDS011;51680;49.806;18.774;2022-12-18T12:46:17;102.78;;;39.60;;
41043;SDS011;51680;49.806;18.774;2022-12-18T12:49:22;96.32;;;38.83;;
41043;SDS011;51680;49.806;18.774;2022-12-18T12:52:30;95.90;;;38.97;;
41043;SDS011;51680;49.806;18.774;2022-12-18T12:55:36;100.93;;;37.63;;
41043;SDS011;51680;49.806;18.774;2022-12-18T12:58:43;102.13;;;39.83;;
41043;SDS011;51680;49.806;18.774;2022-12-18T13:01:53;102.97;;;40.47;;
41043;SDS011;51680;49.806;18.774;2022-12-18T13:05:01;107.90;;;40.42;;
41043;SDS011;51680;49.806;18.774;2022-12-18T13:08:09;112.20;;;43.65;;
41043;SDS011;51680;49.806;18.774;2022-12-18T13:11:15;108.57;;;41.88;;
41043;SDS011;51680;49.806;18.774;2022-12-18T13:14:49;103.32;;;40.70;;
41043;SDS011;51680;49.806;18.774;2022-12-18T13:18:03;103.18;;;39.78;;
41043;SDS011;51680;49.806;18.774;2022-12-18T13:21:20;96.57;;;40.03;;
41043;SDS011;51680;49.806;18.774;2022-12-18T13:24:25;94.57;;;38.78;;
41043;SDS011;51680;49.806;18.774;2022-12-18T13:27:45;106.00;;;40.67;;
41043;SDS011;51680;49.806;18.774;2022-12-18T13:30:56;99.85;;;38.55;;
41043;SDS011;51680;49.806;18.774;2022-12-18T13:34:14;101.25;;;39.95;;
41043;SDS011;51680;49.806;18.774;2022-12-18T13:40:56;102.13;;;38.33;;
41043;SDS011;51680;49.806;18.774;2022-12-18T13:44:10;103.35;;;38.63;;
41043;SDS011;51680;49.806;18.774;2022-12-18T13:47:24;114.10;;;41.97;;
41043;SDS011;51680;49.806;18.774;2022-12-18T13:50:29;114.45;;;41.80;;
41043;SDS011;51680;49.806;18.774;2022-12-18T13:53:33;109.97;;;41.47;;
41043;SDS011;51680;49.806;18.774;2022-12-18T13:56:43;112.95;;;42.50;;
41043;SDS011;51680;49.806;18.774;2022-12-18T13:59:45;130.15;;;45.25;;
41043;SDS011;51680;49.806;18.774;2022-12-18T14:02:48;125.18;;;45.17;;
41043;SDS011;51680;49.806;18.774;2022-12-18T14:05:55;111.07;;;41.63;;
41043;SDS011;51680;49.806;18.774;2022-12-18T14:09:01;112.38;;;42.42;;
41043;SDS011;51680;49.806;18.774;2022-12-18T14:12:04;111.95;;;40.67;;
41043;SDS011;51680;49.806;18.774;2022-12-18T14:15:25;95.30;;;34.20;;
41043;SDS011;51680;49.806;18.774;2022-12-18T14:18:38;122.55;;;45.35;;
41043;SDS011;51680;49.806;18.774;2022-12-18T14:21:46;127.97;;;45.00;;
41043;SDS011;51680;49.806;18.774;2022-12-18T14:25:04;127.47;;;44.13;;
41043;SDS011;51680;49.806;18.774;2022-12-18T14:28:15;140.65;;;48.53;;
41043;SDS011;51680;49.806;18.774;2022-12-18T14:31:18;128.23;;;44.55;;
41043;SDS011;51680;49.806;18.774;2022-12-18T14:34:20;135.90;;;48.88;;
41043;SDS011;51680;49.806;18.774;2022-12-18T14:37:29;127.95;;;49.53;;
41043;SDS011;51680;49.806;18.774;2022-12-18T14:40:31;131.48;;;48.70;;
41043;SDS011;51680;49.806;18.774;2022-12-18T14:43:33;139.70;;;47.88;;
41043;SDS011;51680;49.806;18.774;2022-12-18T14:46:37;140.93;;;49.55;;
41043;SDS011;51680;49.806;18.774;2022-12-18T14:49:43;142.13;;;51.53;;
41043;SDS011;51680;49.806;18.774;2022-12-18T14:52:46;142.35;;;52.50;;
41043;SDS011;51680;49.806;18.774;2022-12-18T14:55:48;135.25;;;53.75;;
41043;SDS011;51680;49.806;18.774;2022-12-18T14:58:51;142.25;;;54.70;;
41043;SDS011;51680;49.806;18.774;2022-12-18T15:01:57;150.23;;;55.38;;
41043;SDS011;51680;49.806;18.774;2022-12-18T15:05:04;144.25;;;53.63;;
41043;SDS011;51680;49.806;18.774;2022-12-18T15:11:42;139.80;;;54.60;;
41043;SDS011;51680;49.806;18.774;2022-12-18T15:14:46;145.75;;;56.30;;
41043;SDS011;51680;49.806;18.774;2022-12-18T15:17:48;149.02;;;56.15;;
41043;SDS011;51680;49.806;18.774;2022-12-18T15:20:50;151.90;;;57.70;;
41043;SDS011;51680;49.806;18.774;2022-12-18T15:23:59;149.43;;;57.55;;
41043;SDS011;51680;49.806;18.774;2022-12-18T15:27:00;156.18;;;59.22;;
41043;SDS011;51680;49.806;18.774;2022-12-18T15:30:16;171.48;;;62.42;;
41043;SDS011;51680;49.806;18.774;2022-12-18T15:33:24;165.18;;;61.45;;
41043;SDS011;51680;49.806;18.774;2022-12-18T15:36:28;150.55;;;56.67;;
41043;SDS011;51680;49.806;18.774;2022-12-18T15:39:33;145.68;;;51.67;;
41043;SDS011;51680;49.806;18.774;2022-12-18T15:42:36;146.45;;;56.03;;
41043;SDS011;51680;49.806;18.774;2022-12-18T15:45:55;138.15;;;52.33;;
41043;SDS011;51680;49.806;18.774;2022-12-18T15:48:57;142.82;;;54.97;;
41043;SDS011;51680;49.806;18.774;2022-12-18T15:51:59;151.90;;;55.35;;
41043;SDS011;51680;49.806;18.774;2022-12-18T15:55:04;150.13;;;54.17;;
41043;SDS011;51680;49.806;18.774;2022-12-18T15:58:24;129.35;;;49.42;;
41043;SDS011;51680;49.806;18.774;2022-12-18T16:01:26;124.75;;;46.25;;
41043;SDS011;51680;49.806;18.774;2022-12-18T16:07:31;120.20;;;44.78;;
41043;SDS011;51680;49.806;18.774;2022-12-18T16:10:34;134.07;;;47.53;;
41043;SDS011;51680;49.806;18.774;2022-12-18T16:13:36;117.57;;;44.92;;
41043;SDS011;51680;49.806;18.774;2022-12-18T16:16:38;130.70;;;47.97;;
41043;SDS011;51680;49.806;18.774;2022-12-18T16:19:40;120.97;;;46.10;;
41043;SDS011;51680;49.806;18.774;2022-12-18T16:22:44;125.15;;;46.72;;
41043;SDS011;51680;49.806;18.774;2022-12-18T16:25:48;120.43;;;46.08;;
41043;SDS011;51680;49.806;18.774;2022-12-18T16:28:50;120.90;;;46.58;;
41043;SDS011;51680;49.806;18.774;2022-12-18T16:31:53;127.82;;;48.00;;
41043;SDS011;51680;49.806;18.774;2022-12-18T16:34:59;137.65;;;49.30;;
41043;SDS011;51680;49.806;18.774;2022-12-18T16:38:01;134.80;;;49.03;;
41043;SDS011;51680;49.806;18.774;2022-12-18T16:41:05;134.80;;;52.33;;
41043;SDS011;51680;49.806;18.774;2022-12-18T16:44:34;145.68;;;54.20;;
41043;SDS011;51680;49.806;18.774;2022-12-18T16:47:36;135.50;;;51.27;;
41043;SDS011;51680;49.806;18.774;2022-12-18T16:50:38;137.48;;;49.70;;
41043;SDS011;51680;49.806;18.774;2022-12-18T16:53:40;135.93;;;51.83;;
41043;SDS011;51680;49.806;18.774;2022-12-18T16:56:44;138.90;;;52.30;;
41043;SDS011;51680;49.806;18.774;2022-12-18T16:59:49;148.85;;;53.20;;
41043;SDS011;51680;49.806;18.774;2022-12-18T17:02:50;148.10;;;55.17;;
41043;SDS011;51680;49.806;18.774;2022-12-18T17:05:52;169.65;;;60.35;;
41043;SDS011;51680;49.806;18.774;2022-12-18T17:08:54;177.73;;;65.07;;
41043;SDS011;51680;49.806;18.774;2022-12-18T17:12:03;189.35;;;68.85;;
41043;SDS011;51680;49.806;18.774;2022-12-18T17:15:06;210.73;;;72.93;;
41043;SDS011;51680;49.806;18.774;2022-12-18T17:21:10;370.83;;;156.45;;
41043;SDS011;51680;49.806;18.774;2022-12-18T17:24:13;388.33;;;154.35;;
41043;SDS011;51680;49.806;18.774;2022-12-18T17:27:17;208.10;;;82.30;;
41043;SDS011;51680;49.806;18.774;2022-12-18T17:30:19;164.52;;;59.13;;
41043;SDS011;51680;49.806;18.774;2022-12-18T17:33:21;162.65;;;56.50;;
41043;SDS011;51680;49.806;18.774;2022-12-18T17:36:25;165.95;;;61.55;;
41043;SDS011;51680;49.806;18.774;2022-12-18T17:39:28;546.33;;;223.43;;
41043;SDS011;51680;49.806;18.774;2022-12-18T17:42:31;516.65;;;210.30;;
41043;SDS011;51680;49.806;18.774;2022-12-18T17:45:33;533.38;;;219.02;;
41043;SDS011;51680;49.806;18.774;2022-12-18T17:48:35;152.70;;;57.97;;
41043;SDS011;51680;49.806;18.774;2022-12-18T17:51:39;120.75;;;49.13;;
41043;SDS011;51680;49.806;18.774;2022-12-18T17:54:42;227.30;;;78.30;;
41043;SDS011;51680;49.806;18.774;2022-12-18T17:57:45;59.95;;;22.75;;
41043;SDS011;51680;49.806;18.774;2022-12-18T18:00:47;57.50;;;23.08;;